sensor_id;sensor_type;location;lat;lon;timestamp;temperature;humidity
71177;DHT22;58877;51.992;4.504;2023-04-15T00:00:49;11.14;62.05
71177;DHT22;58877;51.992;4.504;2023-04-15T00:03:16;11.18;61.79
71177;DHT22;58877;51.992;4.504;2023-04-15T00:05:43;11.16;61.56
71177;DHT22;58877;51.992;4.504;2023-04-15T00:08:09;11.15;61.38
71177;DHT22;58877;51.992;4.504;2023-04-15T00:10:34;11.14;61.55
71177;DHT22;58877;51.992;4.504;2023-04-15T00:13:00;11.08;61.36
71177;DHT22;58877;51.992;4.504;2023-04-15T00:15:27;11.11;61.38
71177;DHT22;58877;51.992;4.504;2023-04-15T00:17:52;11.10;61.38
71177;DHT22;58877;51.992;4.504;2023-04-15T00:20:18;11.05;61.45
71177;DHT22;58877;51.992;4.504;2023-04-15T00:22:44;11.04;61.38
71177;DHT22;58877;51.992;4.504;2023-04-15T00:25:09;10.97;61.47
71177;DHT22;58877;51.992;4.504;2023-04-15T00:27:35;10.90;61.98
71177;DHT22;58877;51.992;4.504;2023-04-15T00:30:01;10.87;61.86
71177;DHT22;58877;51.992;4.504;2023-04-15T00:32:28;10.92;62.04
71177;DHT22;58877;51.992;4.504;2023-04-15T00:34:54;10.88;61.92
71177;DHT22;58877;51.992;4.504;2023-04-15T00:37:20;10.87;62.24
71177;DHT22;58877;51.992;4.504;2023-04-15T00:39:46;10.85;61.62
71177;DHT22;58877;51.992;4.504;2023-04-15T00:42:12;10.90;61.37
71177;DHT22;58877;51.992;4.504;2023-04-15T00:44:40;10.82;61.90
71177;DHT22;58877;51.992;4.504;2023-04-15T00:47:07;10.81;61.82
71177;DHT22;58877;51.992;4.504;2023-04-15T00:49:33;10.82;61.80
71177;DHT22;58877;51.992;4.504;2023-04-15T00:51:59;10.81;61.25
71177;DHT22;58877;51.992;4.504;2023-04-15T00:54:25;10.77;61.59
71177;DHT22;58877;51.992;4.504;2023-04-15T00:56:51;10.75;61.83
71177;DHT22;58877;51.992;4.504;2023-04-15T00:59:16;10.71;61.95
71177;DHT22;58877;51.992;4.504;2023-04-15T01:01:43;10.70;61.87
71177;DHT22;58877;51.992;4.504;2023-04-15T01:04:09;10.67;61.99
71177;DHT22;58877;51.992;4.504;2023-04-15T01:06:36;10.61;62.46
71177;DHT22;58877;51.992;4.504;2023-04-15T01:09:02;10.59;62.33
71177;DHT22;58877;51.992;4.504;2023-04-15T01:11:29;10.51;62.82
71177;DHT22;58877;51.992;4.504;2023-04-15T01:13:57;10.53;62.69
71177;DHT22;58877;51.992;4.504;2023-04-15T01:16:23;10.47;62.88
71177;DHT22;58877;51.992;4.504;2023-04-15T01:18:49;10.44;62.84
71177;DHT22;58877;51.992;4.504;2023-04-15T01:21:15;10.41;63.00
71177;DHT22;58877;51.992;4.504;2023-04-15T01:23:43;10.37;63.13
71177;DHT22;58877;51.992;4.504;2023-04-15T01:26:12;10.37;63.15
71177;DHT22;58877;51.992;4.504;2023-04-15T01:28:38;10.36;63.19
71177;DHT22;58877;51.992;4.504;2023-04-15T01:31:10;10.34;63.25
71177;DHT22;58877;51.992;4.504;2023-04-15T01:33:41;10.32;63.29
71177;DHT22;58877;51.992;4.504;2023-04-15T01:36:08;10.29;63.15
71177;DHT22;58877;51.992;4.504;2023-04-15T01:38:35;10.29;63.23
71177;DHT22;58877;51.992;4.504;2023-04-15T01:41:01;10.24;63.23
71177;DHT22;58877;51.992;4.504;2023-04-15T01:43:29;10.29;63.17
71177;DHT22;58877;51.992;4.504;2023-04-15T01:45:55;10.27;63.09
71177;DHT22;58877;51.992;4.504;2023-04-15T01:48:21;10.23;63.29
71177;DHT22;58877;51.992;4.504;2023-04-15T01:50:47;10.23;63.50
71177;DHT22;58877;51.992;4.504;2023-04-15T01:53:13;10.23;63.64
71177;DHT22;58877;51.992;4.504;2023-04-15T01:55:40;10.20;63.86
71177;DHT22;58877;51.992;4.504;2023-04-15T01:58:06;10.19;64.00
71177;DHT22;58877;51.992;4.504;2023-04-15T02:00:32;10.14;64.17
71177;DHT22;58877;51.992;4.504;2023-04-15T02:02:58;10.13;64.34
71177;DHT22;58877;51.992;4.504;2023-04-15T02:05:24;10.10;64.50
71177;DHT22;58877;51.992;4.504;2023-04-15T02:07:50;10.09;64.75
71177;DHT22;58877;51.992;4.504;2023-04-15T02:10:16;10.09;64.77
71177;DHT22;58877;51.992;4.504;2023-04-15T02:12:42;10.02;65.17
71177;DHT22;58877;51.992;4.504;2023-04-15T02:15:08;10.00;65.52
71177;DHT22;58877;51.992;4.504;2023-04-15T02:17:35;10.00;65.49
71177;DHT22;58877;51.992;4.504;2023-04-15T02:20:00;9.95;65.50
71177;DHT22;58877;51.992;4.504;2023-04-15T02:22:26;10.00;65.74
71177;DHT22;58877;51.992;4.504;2023-04-15T02:24:52;10.06;65.61
71177;DHT22;58877;51.992;4.504;2023-04-15T02:27:18;10.07;65.41
71177;DHT22;58877;51.992;4.504;2023-04-15T02:29:44;10.10;65.45
71177;DHT22;58877;51.992;4.504;2023-04-15T02:32:11;10.03;65.77
71177;DHT22;58877;51.992;4.504;2023-04-15T02:34:38;9.99;65.86
71177;DHT22;58877;51.992;4.504;2023-04-15T02:37:06;9.99;65.77
71177;DHT22;58877;51.992;4.504;2023-04-15T02:39:32;9.95;66.02
71177;DHT22;58877;51.992;4.504;2023-04-15T02:41:58;9.93;66.05
71177;DHT22;58877;51.992;4.504;2023-04-15T02:44:25;9.97;66.15
71177;DHT22;58877;51.992;4.504;2023-04-15T02:46:52;9.97;66.15
71177;DHT22;58877;51.992;4.504;2023-04-15T02:49:23;9.93;66.21
71177;DHT22;58877;51.992;4.504;2023-04-15T02:51:49;9.95;66.33
71177;DHT22;58877;51.992;4.504;2023-04-15T02:54:16;9.92;66.50
71177;DHT22;58877;51.992;4.504;2023-04-15T02:56:42;9.93;66.25
71177;DHT22;58877;51.992;4.504;2023-04-15T02:59:07;9.95;66.31
71177;DHT22;58877;51.992;4.504;2023-04-15T03:01:33;9.92;66.42
71177;DHT22;58877;51.992;4.504;2023-04-15T03:03:59;9.89;66.66
71177;DHT22;58877;51.992;4.504;2023-04-15T03:06:24;9.93;66.57
71177;DHT22;58877;51.992;4.504;2023-04-15T03:08:50;9.86;66.72
71177;DHT22;58877;51.992;4.504;2023-04-15T03:11:16;9.76;67.02
71177;DHT22;58877;51.992;4.504;2023-04-15T03:13:41;9.63;67.31
71177;DHT22;58877;51.992;4.504;2023-04-15T03:16:08;9.56;67.40
71177;DHT22;58877;51.992;4.504;2023-04-15T03:18:33;9.49;67.61
71177;DHT22;58877;51.992;4.504;2023-04-15T03:20:59;9.44;67.72
71177;DHT22;58877;51.992;4.504;2023-04-15T03:23:25;9.38;67.92
71177;DHT22;58877;51.992;4.504;2023-04-15T03:25:50;9.28;68.23
71177;DHT22;58877;51.992;4.504;2023-04-15T03:28:16;9.20;68.56
71177;DHT22;58877;51.992;4.504;2023-04-15T03:30:41;9.17;68.43
71177;DHT22;58877;51.992;4.504;2023-04-15T03:33:07;9.05;68.62
71177;DHT22;58877;51.992;4.504;2023-04-15T03:35:33;8.92;69.02
71177;DHT22;58877;51.992;4.504;2023-04-15T03:37:59;8.85;69.45
71177;DHT22;58877;51.992;4.504;2023-04-15T03:40:25;8.74;69.78
71177;DHT22;58877;51.992;4.504;2023-04-15T03:42:51;8.61;70.24
71177;DHT22;58877;51.992;4.504;2023-04-15T03:45:16;8.53;70.67
71177;DHT22;58877;51.992;4.504;2023-04-15T03:47:42;8.50;70.87
71177;DHT22;58877;51.992;4.504;2023-04-15T03:50:09;8.49;70.91
71177;DHT22;58877;51.992;4.504;2023-04-15T03:52:38;8.40;71.13
71177;DHT22;58877;51.992;4.504;2023-04-15T03:55:04;8.28;71.56
71177;DHT22;58877;51.992;4.504;2023-04-15T03:57:30;8.28;71.75
71177;DHT22;58877;51.992;4.504;2023-04-15T03:59:56;8.26;71.97
71177;DHT22;58877;51.992;4.504;2023-04-15T04:02:22;8.26;71.89
71177;DHT22;58877;51.992;4.504;2023-04-15T04:04:48;8.35;71.83
71177;DHT22;58877;51.992;4.504;2023-04-15T04:07:15;8.30;71.77
71177;DHT22;58877;51.992;4.504;2023-04-15T04:09:42;8.21;72.01
71177;DHT22;58877;51.992;4.504;2023-04-15T04:12:08;8.19;72.29
71177;DHT22;58877;51.992;4.504;2023-04-15T04:14:34;8.19;72.23
71177;DHT22;58877;51.992;4.504;2023-04-15T04:16:59;8.21;72.38
71177;DHT22;58877;51.992;4.504;2023-04-15T04:19:25;8.10;72.58
71177;DHT22;58877;51.992;4.504;2023-04-15T04:21:51;8.03;73.00
71177;DHT22;58877;51.992;4.504;2023-04-15T04:24:17;8.01;73.04
71177;DHT22;58877;51.992;4.504;2023-04-15T04:26:43;7.96;73.21
71177;DHT22;58877;51.992;4.504;2023-04-15T04:29:09;7.96;73.26
71177;DHT22;58877;51.992;4.504;2023-04-15T04:31:34;7.91;73.51
71177;DHT22;58877;51.992;4.504;2023-04-15T04:34:00;7.88;73.73
71177;DHT22;58877;51.992;4.504;2023-04-15T04:36:26;7.84;73.99
71177;DHT22;58877;51.992;4.504;2023-04-15T04:38:51;7.86;73.94
71177;DHT22;58877;51.992;4.504;2023-04-15T04:41:17;7.88;74.16
71177;DHT22;58877;51.992;4.504;2023-04-15T04:43:43;7.92;73.95
71177;DHT22;58877;51.992;4.504;2023-04-15T04:46:09;8.03;73.76
71177;DHT22;58877;51.992;4.504;2023-04-15T04:48:35;8.07;73.69
71177;DHT22;58877;51.992;4.504;2023-04-15T04:51:01;8.10;73.63
71177;DHT22;58877;51.992;4.504;2023-04-15T04:53:26;8.09;73.53
71177;DHT22;58877;51.992;4.504;2023-04-15T04:55:52;8.06;73.78
71177;DHT22;58877;51.992;4.504;2023-04-15T04:58:18;8.07;73.78
71177;DHT22;58877;51.992;4.504;2023-04-15T05:00:44;8.17;73.71
71177;DHT22;58877;51.992;4.504;2023-04-15T05:03:11;8.17;73.70
71177;DHT22;58877;51.992;4.504;2023-04-15T05:05:37;8.16;73.42
71177;DHT22;58877;51.992;4.504;2023-04-15T05:08:05;8.28;73.39
71177;DHT22;58877;51.992;4.504;2023-04-15T05:10:32;8.29;73.25
71177;DHT22;58877;51.992;4.504;2023-04-15T05:12:58;8.30;73.31
71177;DHT22;58877;51.992;4.504;2023-04-15T05:15:23;8.26;73.42
71177;DHT22;58877;51.992;4.504;2023-04-15T05:17:49;8.32;73.47
71177;DHT22;58877;51.992;4.504;2023-04-15T05:20:16;8.32;73.43
71177;DHT22;58877;51.992;4.504;2023-04-15T05:22:42;8.33;73.48
71177;DHT22;58877;51.992;4.504;2023-04-15T05:25:08;8.32;73.56
71177;DHT22;58877;51.992;4.504;2023-04-15T05:27:34;8.28;73.84
71177;DHT22;58877;51.992;4.504;2023-04-15T05:30:00;8.30;73.82
71177;DHT22;58877;51.992;4.504;2023-04-15T05:32:26;8.33;74.02
71177;DHT22;58877;51.992;4.504;2023-04-15T05:34:52;8.25;74.28
71177;DHT22;58877;51.992;4.504;2023-04-15T05:37:17;8.28;74.46
71177;DHT22;58877;51.992;4.504;2023-04-15T05:39:45;8.37;74.27
71177;DHT22;58877;51.992;4.504;2023-04-15T05:42:11;8.39;74.16
71177;DHT22;58877;51.992;4.504;2023-04-15T05:44:37;8.43;74.11
71177;DHT22;58877;51.992;4.504;2023-04-15T05:47:03;8.52;73.90
71177;DHT22;58877;51.992;4.504;2023-04-15T05:49:29;8.54;74.04
71177;DHT22;58877;51.992;4.504;2023-04-15T05:51:55;8.60;73.87
71177;DHT22;58877;51.992;4.504;2023-04-15T05:54:21;8.60;73.80
71177;DHT22;58877;51.992;4.504;2023-04-15T05:56:52;8.74;73.73
71177;DHT22;58877;51.992;4.504;2023-04-15T05:59:33;8.74;73.75
71177;DHT22;58877;51.992;4.504;2023-04-15T06:01:59;8.80;73.68
71177;DHT22;58877;51.992;4.504;2023-04-15T06:04:25;8.76;73.68
71177;DHT22;58877;51.992;4.504;2023-04-15T06:06:51;8.74;73.91
71177;DHT22;58877;51.992;4.504;2023-04-15T06:09:16;8.73;74.12
71177;DHT22;58877;51.992;4.504;2023-04-15T06:11:43;8.83;74.07
71177;DHT22;58877;51.992;4.504;2023-04-15T06:14:10;8.97;73.93
71177;DHT22;58877;51.992;4.504;2023-04-15T06:16:35;9.05;73.76
71177;DHT22;58877;51.992;4.504;2023-04-15T06:19:02;8.99;73.67
71177;DHT22;58877;51.992;4.504;2023-04-15T06:21:28;9.08;73.71
71177;DHT22;58877;51.992;4.504;2023-04-15T06:23:54;9.11;73.88
71177;DHT22;58877;51.992;4.504;2023-04-15T06:26:21;9.24;73.68
71177;DHT22;58877;51.992;4.504;2023-04-15T06:28:48;9.27;73.59
71177;DHT22;58877;51.992;4.504;2023-04-15T06:31:13;9.34;73.39
71177;DHT22;58877;51.992;4.504;2023-04-15T06:33:39;9.45;73.28
71177;DHT22;58877;51.992;4.504;2023-04-15T06:36:05;9.49;73.06
71177;DHT22;58877;51.992;4.504;2023-04-15T06:38:34;9.65;72.95
71177;DHT22;58877;51.992;4.504;2023-04-15T06:41:01;9.68;72.92
71177;DHT22;58877;51.992;4.504;2023-04-15T06:43:27;9.75;72.97
71177;DHT22;58877;51.992;4.504;2023-04-15T06:45:56;9.82;72.91
71177;DHT22;58877;51.992;4.504;2023-04-15T06:48:26;9.92;72.44
71177;DHT22;58877;51.992;4.504;2023-04-15T06:50:52;10.03;72.37
71177;DHT22;58877;51.992;4.504;2023-04-15T06:55:53;10.19;72.06
71177;DHT22;58877;51.992;4.504;2023-04-15T06:58:18;10.26;71.72
71177;DHT22;58877;51.992;4.504;2023-04-15T07:00:44;10.30;71.94
71177;DHT22;58877;51.992;4.504;2023-04-15T07:03:11;10.40;71.67
71177;DHT22;58877;51.992;4.504;2023-04-15T07:05:37;10.50;71.36
71177;DHT22;58877;51.992;4.504;2023-04-15T07:08:04;10.65;70.89
71177;DHT22;58877;51.992;4.504;2023-04-15T07:10:29;10.71;70.93
71177;DHT22;58877;51.992;4.504;2023-04-15T07:12:55;10.74;70.11
71177;DHT22;58877;51.992;4.504;2023-04-15T07:15:21;10.90;69.95
71177;DHT22;58877;51.992;4.504;2023-04-15T07:17:48;11.04;69.86
71177;DHT22;58877;51.992;4.504;2023-04-15T07:20:13;11.18;69.52
71177;DHT22;58877;51.992;4.504;2023-04-15T07:22:39;11.38;69.22
71177;DHT22;58877;51.992;4.504;2023-04-15T07:25:05;11.49;68.37
71177;DHT22;58877;51.992;4.504;2023-04-15T07:27:32;11.58;68.29
71177;DHT22;58877;51.992;4.504;2023-04-15T07:29:57;11.72;67.62
71177;DHT22;58877;51.992;4.504;2023-04-15T07:32:23;11.77;67.08
71177;DHT22;58877;51.992;4.504;2023-04-15T07:34:48;11.66;66.94
71177;DHT22;58877;51.992;4.504;2023-04-15T07:37:14;11.46;67.68
71177;DHT22;58877;51.992;4.504;2023-04-15T07:39:40;11.75;67.58
71177;DHT22;58877;51.992;4.504;2023-04-15T07:42:05;11.94;67.51
71177;DHT22;58877;51.992;4.504;2023-04-15T07:44:31;12.13;66.91
71177;DHT22;58877;51.992;4.504;2023-04-15T07:46:56;12.03;66.64
71177;DHT22;58877;51.992;4.504;2023-04-15T07:49:22;12.16;67.31
71177;DHT22;58877;51.992;4.504;2023-04-15T07:51:48;12.38;66.71
71177;DHT22;58877;51.992;4.504;2023-04-15T07:54:14;12.17;66.48
71177;DHT22;58877;51.992;4.504;2023-04-15T07:56:41;12.36;67.08
71177;DHT22;58877;51.992;4.504;2023-04-15T07:59:07;12.27;67.13
71177;DHT22;58877;51.992;4.504;2023-04-15T08:01:34;12.38;66.69
71177;DHT22;58877;51.992;4.504;2023-04-15T08:04:01;12.33;67.04
71177;DHT22;58877;51.992;4.504;2023-04-15T08:06:27;12.09;67.66
71177;DHT22;58877;51.992;4.504;2023-04-15T08:08:53;12.10;67.55
71177;DHT22;58877;51.992;4.504;2023-04-15T08:11:19;11.99;68.21
71177;DHT22;58877;51.992;4.504;2023-04-15T08:13:46;12.24;67.72
71177;DHT22;58877;51.992;4.504;2023-04-15T08:16:23;12.21;67.92
71177;DHT22;58877;51.992;4.504;2023-04-15T08:18:51;12.69;67.59
71177;DHT22;58877;51.992;4.504;2023-04-15T08:21:18;12.68;66.09
71177;DHT22;58877;51.992;4.504;2023-04-15T08:23:46;12.89;66.39
71177;DHT22;58877;51.992;4.504;2023-04-15T08:26:12;12.83;66.04
71177;DHT22;58877;51.992;4.504;2023-04-15T08:28:40;12.81;64.76
71177;DHT22;58877;51.992;4.504;2023-04-15T08:31:06;13.08;64.80
71177;DHT22;58877;51.992;4.504;2023-04-15T08:33:31;13.15;64.17
71177;DHT22;58877;51.992;4.504;2023-04-15T08:35:57;13.25;64.28
71177;DHT22;58877;51.992;4.504;2023-04-15T08:38:23;13.42;64.02
71177;DHT22;58877;51.992;4.504;2023-04-15T08:40:48;13.73;64.06
71177;DHT22;58877;51.992;4.504;2023-04-15T08:43:21;13.67;61.94
71177;DHT22;58877;51.992;4.504;2023-04-15T08:45:52;13.32;63.47
71177;DHT22;58877;51.992;4.504;2023-04-15T08:48:19;13.32;63.04
71177;DHT22;58877;51.992;4.504;2023-04-15T08:50:47;13.30;63.54
71177;DHT22;58877;51.992;4.504;2023-04-15T08:53:13;13.53;63.73
71177;DHT22;58877;51.992;4.504;2023-04-15T08:55:45;13.94;62.23
71177;DHT22;58877;51.992;4.504;2023-04-15T08:58:12;14.14;61.31
71177;DHT22;58877;51.992;4.504;2023-04-15T09:00:39;14.09;60.88
71177;DHT22;58877;51.992;4.504;2023-04-15T09:03:06;13.94;60.84
71177;DHT22;58877;51.992;4.504;2023-04-15T09:05:33;14.07;60.52
71177;DHT22;58877;51.992;4.504;2023-04-15T09:07:59;13.84;59.51
71177;DHT22;58877;51.992;4.504;2023-04-15T09:10:26;13.67;60.26
71177;DHT22;58877;51.992;4.504;2023-04-15T09:12:52;13.65;59.92
71177;DHT22;58877;51.992;4.504;2023-04-15T09:15:17;13.48;60.22
71177;DHT22;58877;51.992;4.504;2023-04-15T09:17:44;13.52;59.39
71177;DHT22;58877;51.992;4.504;2023-04-15T09:20:13;13.40;60.03
71177;DHT22;58877;51.992;4.504;2023-04-15T09:22:40;13.79;59.58
71177;DHT22;58877;51.992;4.504;2023-04-15T09:27:52;13.74;57.89
71177;DHT22;58877;51.992;4.504;2023-04-15T09:30:18;14.09;59.07
71177;DHT22;58877;51.992;4.504;2023-04-15T09:32:52;14.23;57.20
71177;DHT22;58877;51.992;4.504;2023-04-15T09:35:20;14.00;55.97
71177;DHT22;58877;51.992;4.504;2023-04-15T09:37:50;13.93;55.20
71177;DHT22;58877;51.992;4.504;2023-04-15T09:40:35;13.63;53.03
71177;DHT22;58877;51.992;4.504;2023-04-15T09:43:06;13.53;52.89
71177;DHT22;58877;51.992;4.504;2023-04-15T09:45:33;13.67;55.14
71177;DHT22;58877;51.992;4.504;2023-04-15T09:48:17;13.89;54.07
71177;DHT22;58877;51.992;4.504;2023-04-15T09:50:43;14.01;51.59
71177;DHT22;58877;51.992;4.504;2023-04-15T09:53:10;13.93;52.03
71177;DHT22;58877;51.992;4.504;2023-04-15T09:55:38;13.83;50.94
71177;DHT22;58877;51.992;4.504;2023-04-15T09:58:08;14.03;53.94
71177;DHT22;58877;51.992;4.504;2023-04-15T10:00:35;14.21;54.91
71177;DHT22;58877;51.992;4.504;2023-04-15T10:03:04;14.27;54.17
71177;DHT22;58877;51.992;4.504;2023-04-15T10:05:32;14.37;51.42
71177;DHT22;58877;51.992;4.504;2023-04-15T10:07:59;14.45;51.82
71177;DHT22;58877;51.992;4.504;2023-04-15T10:10:26;14.68;52.58
71177;DHT22;58877;51.992;4.504;2023-04-15T10:12:53;14.67;52.71
71177;DHT22;58877;51.992;4.504;2023-04-15T10:15:20;14.75;52.50
71177;DHT22;58877;51.992;4.504;2023-04-15T10:17:46;14.71;50.96
71177;DHT22;58877;51.992;4.504;2023-04-15T10:20:16;14.33;51.59
71177;DHT22;58877;51.992;4.504;2023-04-15T10:22:44;14.10;52.20
71177;DHT22;58877;51.992;4.504;2023-04-15T10:25:11;13.76;52.63
71177;DHT22;58877;51.992;4.504;2023-04-15T10:27:38;13.81;53.30
71177;DHT22;58877;51.992;4.504;2023-04-15T10:30:05;13.71;54.35
71177;DHT22;58877;51.992;4.504;2023-04-15T10:32:47;14.01;54.55
71177;DHT22;58877;51.992;4.504;2023-04-15T10:35:15;14.23;53.70
71177;DHT22;58877;51.992;4.504;2023-04-15T10:37:42;14.44;54.20
71177;DHT22;58877;51.992;4.504;2023-04-15T10:42:54;14.35;53.60
71177;DHT22;58877;51.992;4.504;2023-04-15T10:45:20;14.40;54.68
71177;DHT22;58877;51.992;4.504;2023-04-15T10:47:51;14.49;50.80
71177;DHT22;58877;51.992;4.504;2023-04-15T10:50:18;14.28;51.01
71177;DHT22;58877;51.992;4.504;2023-04-15T10:52:44;14.28;51.19
71177;DHT22;58877;51.992;4.504;2023-04-15T10:55:13;14.42;51.92
71177;DHT22;58877;51.992;4.504;2023-04-15T10:57:43;14.57;53.08
71177;DHT22;58877;51.992;4.504;2023-04-15T11:00:12;14.72;52.41
71177;DHT22;58877;51.992;4.504;2023-04-15T11:02:42;14.72;51.66
71177;DHT22;58877;51.992;4.504;2023-04-15T11:05:09;14.67;52.33
71177;DHT22;58877;51.992;4.504;2023-04-15T11:13:22;14.63;50.84
71177;DHT22;58877;51.992;4.504;2023-04-15T11:15:48;14.61;51.55
71177;DHT22;58877;51.992;4.504;2023-04-15T11:20:48;15.15;50.95
71177;DHT22;58877;51.992;4.504;2023-04-15T11:23:26;15.16;50.65
71177;DHT22;58877;51.992;4.504;2023-04-15T11:25:54;15.32;50.83
71177;DHT22;58877;51.992;4.504;2023-04-15T11:28:20;15.28;52.14
71177;DHT22;58877;51.992;4.504;2023-04-15T11:30:45;15.53;50.94
71177;DHT22;58877;51.992;4.504;2023-04-15T11:33:11;15.71;50.55
71177;DHT22;58877;51.992;4.504;2023-04-15T11:35:40;15.16;50.75
71177;DHT22;58877;51.992;4.504;2023-04-15T11:38:14;14.86;53.78
71177;DHT22;58877;51.992;4.504;2023-04-15T11:40:41;14.75;53.49
71177;DHT22;58877;51.992;4.504;2023-04-15T11:43:14;14.95;53.11
71177;DHT22;58877;51.992;4.504;2023-04-15T11:45:58;14.76;51.66
71177;DHT22;58877;51.992;4.504;2023-04-15T11:48:30;14.79;51.65
71177;DHT22;58877;51.992;4.504;2023-04-15T11:50:58;14.71;52.74
71177;DHT22;58877;51.992;4.504;2023-04-15T11:53:55;14.98;51.41
71177;DHT22;58877;51.992;4.504;2023-04-15T11:56:24;15.05;53.20
71177;DHT22;58877;51.992;4.504;2023-04-15T11:58:55;15.08;51.66
71177;DHT22;58877;51.992;4.504;2023-04-15T12:01:34;14.91;53.14
71177;DHT22;58877;51.992;4.504;2023-04-15T12:04:00;14.81;52.66
71177;DHT22;58877;51.992;4.504;2023-04-15T12:06:32;15.03;51.22
71177;DHT22;58877;51.992;4.504;2023-04-15T12:16:43;14.81;52.83
71177;DHT22;58877;51.992;4.504;2023-04-15T12:19:12;14.99;50.78
71177;DHT22;58877;51.992;4.504;2023-04-15T12:21:41;15.23;52.04
71177;DHT22;58877;51.992;4.504;2023-04-15T12:24:09;15.32;51.06
71177;DHT22;58877;51.992;4.504;2023-04-15T12:26:47;14.91;52.36
71177;DHT22;58877;51.992;4.504;2023-04-15T12:29:14;14.91;52.77
71177;DHT22;58877;51.992;4.504;2023-04-15T12:31:52;14.82;53.73
71177;DHT22;58877;51.992;4.504;2023-04-15T12:34:32;15.12;52.85
71177;DHT22;58877;51.992;4.504;2023-04-15T12:37:00;15.29;52.27
71177;DHT22;58877;51.992;4.504;2023-04-15T12:39:28;15.51;52.25
71177;DHT22;58877;51.992;4.504;2023-04-15T12:41:54;15.28;52.09
71177;DHT22;58877;51.992;4.504;2023-04-15T12:44:22;15.13;52.71
71177;DHT22;58877;51.992;4.504;2023-04-15T12:46:49;15.43;52.33
71177;DHT22;58877;51.992;4.504;2023-04-15T12:49:15;15.28;52.67
71177;DHT22;58877;51.992;4.504;2023-04-15T12:51:44;15.40;51.59
71177;DHT22;58877;51.992;4.504;2023-04-15T12:54:09;15.32;52.02
71177;DHT22;58877;51.992;4.504;2023-04-15T12:56:35;14.99;51.81
71177;DHT22;58877;51.992;4.504;2023-04-15T12:59:04;14.95;52.45
71177;DHT22;58877;51.992;4.504;2023-04-15T13:01:30;14.89;56.18
71177;DHT22;58877;51.992;4.504;2023-04-15T13:03:56;14.81;58.23
71177;DHT22;58877;51.992;4.504;2023-04-15T13:06:21;14.20;59.43
71177;DHT22;58877;51.992;4.504;2023-04-15T13:08:48;14.34;59.41
71177;DHT22;58877;51.992;4.504;2023-04-15T13:11:14;14.40;59.39
71177;DHT22;58877;51.992;4.504;2023-04-15T13:13:39;14.63;58.63
71177;DHT22;58877;51.992;4.504;2023-04-15T13:16:05;14.24;59.57
71177;DHT22;58877;51.992;4.504;2023-04-15T13:18:31;14.23;59.86
71177;DHT22;58877;51.992;4.504;2023-04-15T13:20:58;14.72;57.60
71177;DHT22;58877;51.992;4.504;2023-04-15T13:23:24;15.12;56.08
71177;DHT22;58877;51.992;4.504;2023-04-15T13:25:50;14.91;55.63
71177;DHT22;58877;51.992;4.504;2023-04-15T13:28:16;14.71;58.06
71177;DHT22;58877;51.992;4.504;2023-04-15T13:30:42;14.60;57.80
71177;DHT22;58877;51.992;4.504;2023-04-15T13:33:08;14.86;57.87
71177;DHT22;58877;51.992;4.504;2023-04-15T13:35:35;14.71;58.38
71177;DHT22;58877;51.992;4.504;2023-04-15T13:38:00;14.35;58.92
71177;DHT22;58877;51.992;4.504;2023-04-15T13:40:26;14.52;60.44
71177;DHT22;58877;51.992;4.504;2023-04-15T13:42:52;14.85;58.99
71177;DHT22;58877;51.992;4.504;2023-04-15T13:45:18;14.71;58.45
71177;DHT22;58877;51.992;4.504;2023-04-15T13:47:43;14.63;58.10
71177;DHT22;58877;51.992;4.504;2023-04-15T13:50:09;14.46;57.21
71177;DHT22;58877;51.992;4.504;2023-04-15T13:52:35;14.31;57.77
71177;DHT22;58877;51.992;4.504;2023-04-15T13:55:02;14.30;58.60
71177;DHT22;58877;51.992;4.504;2023-04-15T13:57:28;14.38;58.40
71177;DHT22;58877;51.992;4.504;2023-04-15T13:59:54;14.48;58.21
71177;DHT22;58877;51.992;4.504;2023-04-15T14:02:20;14.64;57.77
71177;DHT22;58877;51.992;4.504;2023-04-15T14:04:47;14.40;58.54
71177;DHT22;58877;51.992;4.504;2023-04-15T14:07:13;14.27;57.43
71177;DHT22;58877;51.992;4.504;2023-04-15T14:09:39;14.31;58.88
71177;DHT22;58877;51.992;4.504;2023-04-15T14:12:05;14.28;57.62
71177;DHT22;58877;51.992;4.504;2023-04-15T14:14:30;14.38;57.96
71177;DHT22;58877;51.992;4.504;2023-04-15T14:16:56;14.20;59.30
71177;DHT22;58877;51.992;4.504;2023-04-15T14:19:23;14.41;58.79
71177;DHT22;58877;51.992;4.504;2023-04-15T14:21:49;14.55;58.66
71177;DHT22;58877;51.992;4.504;2023-04-15T14:24:14;14.41;58.51
71177;DHT22;58877;51.992;4.504;2023-04-15T14:26:42;14.31;58.85
71177;DHT22;58877;51.992;4.504;2023-04-15T14:29:08;14.35;59.62
71177;DHT22;58877;51.992;4.504;2023-04-15T14:31:34;14.41;60.40
71177;DHT22;58877;51.992;4.504;2023-04-15T14:34:00;14.95;59.25
71177;DHT22;58877;51.992;4.504;2023-04-15T14:36:25;14.95;57.96
71177;DHT22;58877;51.992;4.504;2023-04-15T14:38:51;14.79;58.45
71177;DHT22;58877;51.992;4.504;2023-04-15T14:41:17;14.85;59.39
71177;DHT22;58877;51.992;4.504;2023-04-15T14:43:42;14.40;60.98
71177;DHT22;58877;51.992;4.504;2023-04-15T14:46:11;14.46;60.14
71177;DHT22;58877;51.992;4.504;2023-04-15T14:48:40;14.11;60.53
71177;DHT22;58877;51.992;4.504;2023-04-15T14:51:05;14.21;61.03
71177;DHT22;58877;51.992;4.504;2023-04-15T14:53:32;15.20;58.64
71177;DHT22;58877;51.992;4.504;2023-04-15T14:55:57;15.25;58.09
71177;DHT22;58877;51.992;4.504;2023-04-15T14:58:23;15.64;57.17
71177;DHT22;58877;51.992;4.504;2023-04-15T15:00:49;15.81;56.32
71177;DHT22;58877;51.992;4.504;2023-04-15T15:03:15;15.53;56.51
71177;DHT22;58877;51.992;4.504;2023-04-15T15:05:43;14.91;58.54
71177;DHT22;58877;51.992;4.504;2023-04-15T15:08:10;15.06;58.96
71177;DHT22;58877;51.992;4.504;2023-04-15T15:10:37;15.60;58.24
71177;DHT22;58877;51.992;4.504;2023-04-15T15:13:03;15.80;57.25
71177;DHT22;58877;51.992;4.504;2023-04-15T15:15:29;16.17;56.33
71177;DHT22;58877;51.992;4.504;2023-04-15T15:17:55;15.38;57.34
71177;DHT22;58877;51.992;4.504;2023-04-15T15:20:21;15.56;57.79
71177;DHT22;58877;51.992;4.504;2023-04-15T15:22:50;15.32;58.68
71177;DHT22;58877;51.992;4.504;2023-04-15T15:25:18;15.50;57.25
71177;DHT22;58877;51.992;4.504;2023-04-15T15:27:44;14.92;59.49
71177;DHT22;58877;51.992;4.504;2023-04-15T15:30:10;15.06;59.03
71177;DHT22;58877;51.992;4.504;2023-04-15T15:32:41;15.15;58.80
71177;DHT22;58877;51.992;4.504;2023-04-15T15:35:07;14.49;59.74
71177;DHT22;58877;51.992;4.504;2023-04-15T15:37:34;14.71;59.66
71177;DHT22;58877;51.992;4.504;2023-04-15T15:40:00;15.09;58.48
71177;DHT22;58877;51.992;4.504;2023-04-15T15:42:30;15.05;58.43
71177;DHT22;58877;51.992;4.504;2023-04-15T15:44:56;15.09;58.24
71177;DHT22;58877;51.992;4.504;2023-04-15T15:47:21;14.65;58.68
71177;DHT22;58877;51.992;4.504;2023-04-15T15:49:47;15.18;57.34
71177;DHT22;58877;51.992;4.504;2023-04-15T15:52:13;14.92;57.86
71177;DHT22;58877;51.992;4.504;2023-04-15T15:54:39;14.95;58.05
71177;DHT22;58877;51.992;4.504;2023-04-15T15:57:06;15.42;56.87